sensor_id;sensor_type;location;lat;lon;timestamp;temperature;humidity
77727;SHT30;68312;53.502;10.030;2023-08-01T00:01:32;15.95;95.65
77727;SHT30;68312;53.502;10.030;2023-08-01T00:03:57;15.94;95.73
77727;SHT30;68312;53.502;10.030;2023-08-01T00:06:23;15.92;95.79
77727;SHT30;68312;53.502;10.030;2023-08-01T00:08:50;15.85;95.71
77727;SHT30;68312;53.502;10.030;2023-08-01T00:11:16;15.81;95.54
77727;SHT30;68312;53.502;10.030;2023-08-01T00:13:41;15.72;95.60
77727;SHT30;68312;53.502;10.030;2023-08-01T00:16:06;15.72;95.64
77727;SHT30;68312;53.502;10.030;2023-08-01T00:18:32;15.71;95.54
77727;SHT30;68312;53.502;10.030;2023-08-01T00:20:57;15.71;95.69
77727;SHT30;68312;53.502;10.030;2023-08-01T00:23:24;15.68;95.84
77727;SHT30;68312;53.502;10.030;2023-08-01T00:25:50;15.71;95.92
77727;SHT30;68312;53.502;10.030;2023-08-01T00:28:22;15.68;96.01
77727;SHT30;68312;53.502;10.030;2023-08-01T00:30:48;15.68;96.09
77727;SHT30;68312;53.502;10.030;2023-08-01T00:33:13;15.68;96.14
77727;SHT30;68312;53.502;10.030;2023-08-01T00:35:40;15.70;96.18
77727;SHT30;68312;53.502;10.030;2023-08-01T00:38:06;15.67;96.22
77727;SHT30;68312;53.502;10.030;2023-08-01T00:40:33;15.65;96.31
77727;SHT30;68312;53.502;10.030;2023-08-01T00:42:58;15.67;96.29
77727;SHT30;68312;53.502;10.030;2023-08-01T00:45:25;15.62;96.31
77727;SHT30;68312;53.502;10.030;2023-08-01T00:47:52;15.65;96.39
77727;SHT30;68312;53.502;10.030;2023-08-01T00:50:18;15.68;96.47
77727;SHT30;68312;53.502;10.030;2023-08-01T00:52:51;15.70;96.54
77727;SHT30;68312;53.502;10.030;2023-08-01T00:55:18;15.71;96.58
77727;SHT30;68312;53.502;10.030;2023-08-01T00:57:43;15.72;96.59
77727;SHT30;68312;53.502;10.030;2023-08-01T01:00:09;15.71;96.63
77727;SHT30;68312;53.502;10.030;2023-08-01T01:02:36;15.71;96.69
77727;SHT30;68312;53.502;10.030;2023-08-01T01:05:03;15.71;96.73
77727;SHT30;68312;53.502;10.030;2023-08-01T01:07:29;15.71;96.77
77727;SHT30;68312;53.502;10.030;2023-08-01T01:09:58;15.72;96.76
77727;SHT30;68312;53.502;10.030;2023-08-01T01:12:23;15.68;96.80
77727;SHT30;68312;53.502;10.030;2023-08-01T01:14:49;15.70;96.83
77727;SHT30;68312;53.502;10.030;2023-08-01T01:17:14;15.70;96.87
77727;SHT30;68312;53.502;10.030;2023-08-01T01:19:40;15.72;96.94
77727;SHT30;68312;53.502;10.030;2023-08-01T01:22:09;15.77;96.95
77727;SHT30;68312;53.502;10.030;2023-08-01T01:24:36;15.84;96.84
77727;SHT30;68312;53.502;10.030;2023-08-01T01:27:04;15.81;96.77
77727;SHT30;68312;53.502;10.030;2023-08-01T01:29:33;15.78;96.78
77727;SHT30;68312;53.502;10.030;2023-08-01T01:32:03;15.84;96.71
77727;SHT30;68312;53.502;10.030;2023-08-01T01:34:29;15.87;96.58
77727;SHT30;68312;53.502;10.030;2023-08-01T01:36:55;15.88;96.58
77727;SHT30;68312;53.502;10.030;2023-08-01T01:39:20;15.91;96.30
77727;SHT30;68312;53.502;10.030;2023-08-01T01:41:46;15.88;96.32
77727;SHT30;68312;53.502;10.030;2023-08-01T01:44:12;15.89;96.38
77727;SHT30;68312;53.502;10.030;2023-08-01T01:46:37;15.85;96.36
77727;SHT30;68312;53.502;10.030;2023-08-01T01:49:02;15.85;96.39
77727;SHT30;68312;53.502;10.030;2023-08-01T01:51:30;15.81;96.45
77727;SHT30;68312;53.502;10.030;2023-08-01T01:53:55;15.79;96.51
77727;SHT30;68312;53.502;10.030;2023-08-01T01:56:21;15.81;96.59
77727;SHT30;68312;53.502;10.030;2023-08-01T01:58:46;15.78;96.60
77727;SHT30;68312;53.502;10.030;2023-08-01T02:01:12;15.78;96.64
77727;SHT30;68312;53.502;10.030;2023-08-01T02:03:37;15.79;96.71
77727;SHT30;68312;53.502;10.030;2023-08-01T02:06:03;15.79;96.69
77727;SHT30;68312;53.502;10.030;2023-08-01T02:08:29;15.81;96.76
77727;SHT30;68312;53.502;10.030;2023-08-01T02:10:55;15.82;96.76
77727;SHT30;68312;53.502;10.030;2023-08-01T02:13:24;15.81;96.80
77727;SHT30;68312;53.502;10.030;2023-08-01T02:15:49;15.87;96.83
77727;SHT30;68312;53.502;10.030;2023-08-01T02:18:15;15.88;96.86
77727;SHT30;68312;53.502;10.030;2023-08-01T02:20:40;15.91;96.88
77727;SHT30;68312;53.502;10.030;2023-08-01T02:23:05;15.92;96.87
77727;SHT30;68312;53.502;10.030;2023-08-01T02:25:31;15.94;96.86
77727;SHT30;68312;53.502;10.030;2023-08-01T02:27:56;15.94;96.91
77727;SHT30;68312;53.502;10.030;2023-08-01T02:30:22;15.94;96.85
77727;SHT30;68312;53.502;10.030;2023-08-01T02:32:47;15.97;96.84
77727;SHT30;68312;53.502;10.030;2023-08-01T02:35:12;15.97;96.79
77727;SHT30;68312;53.502;10.030;2023-08-01T02:37:38;15.95;96.77
77727;SHT30;68312;53.502;10.030;2023-08-01T02:40:04;16.01;96.63
77727;SHT30;68312;53.502;10.030;2023-08-01T02:42:33;15.99;96.38
77727;SHT30;68312;53.502;10.030;2023-08-01T02:44:58;16.01;96.34
77727;SHT30;68312;53.502;10.030;2023-08-01T02:47:24;15.99;96.35
77727;SHT30;68312;53.502;10.030;2023-08-01T02:49:49;15.99;96.38
77727;SHT30;68312;53.502;10.030;2023-08-01T02:52:14;15.97;96.39
77727;SHT30;68312;53.502;10.030;2023-08-01T02:54:40;15.98;96.39
77727;SHT30;68312;53.502;10.030;2023-08-01T02:57:05;15.97;96.41
77727;SHT30;68312;53.502;10.030;2023-08-01T02:59:31;15.94;96.41
77727;SHT30;68312;53.502;10.030;2023-08-01T03:01:59;15.94;96.42
77727;SHT30;68312;53.502;10.030;2023-08-01T03:04:24;15.95;96.48
77727;SHT30;68312;53.502;10.030;2023-08-01T03:06:50;15.95;96.50
77727;SHT30;68312;53.502;10.030;2023-08-01T03:09:15;15.95;96.46
77727;SHT30;68312;53.502;10.030;2023-08-01T03:11:41;15.92;96.46
77727;SHT30;68312;53.502;10.030;2023-08-01T03:14:07;15.95;96.45
77727;SHT30;68312;53.502;10.030;2023-08-01T03:16:33;15.92;96.36
77727;SHT30;68312;53.502;10.030;2023-08-01T03:18:58;15.95;96.36
77727;SHT30;68312;53.502;10.030;2023-08-01T03:21:32;15.94;96.30
77727;SHT30;68312;53.502;10.030;2023-08-01T03:23:57;15.94;96.22
77727;SHT30;68312;53.502;10.030;2023-08-01T03:26:23;15.94;96.21
77727;SHT30;68312;53.502;10.030;2023-08-01T03:28:48;15.94;96.21
77727;SHT30;68312;53.502;10.030;2023-08-01T03:31:13;15.92;96.23
77727;SHT30;68312;53.502;10.030;2023-08-01T03:33:39;15.95;96.23
77727;SHT30;68312;53.502;10.030;2023-08-01T03:36:04;15.97;96.25
77727;SHT30;68312;53.502;10.030;2023-08-01T03:38:30;15.94;96.29
77727;SHT30;68312;53.502;10.030;2023-08-01T03:40:55;15.92;96.27
77727;SHT30;68312;53.502;10.030;2023-08-01T03:43:21;15.95;96.12
77727;SHT30;68312;53.502;10.030;2023-08-01T03:45:49;15.98;96.13
77727;SHT30;68312;53.502;10.030;2023-08-01T03:48:18;15.99;96.00
77727;SHT30;68312;53.502;10.030;2023-08-01T03:50:44;15.97;95.94
77727;SHT30;68312;53.502;10.030;2023-08-01T03:53:09;15.97;96.01
77727;SHT30;68312;53.502;10.030;2023-08-01T03:55:37;15.95;95.98
77727;SHT30;68312;53.502;10.030;2023-08-01T03:58:02;15.99;96.02
77727;SHT30;68312;53.502;10.030;2023-08-01T04:00:28;15.97;96.03
77727;SHT30;68312;53.502;10.030;2023-08-01T04:03:00;15.97;95.97
77727;SHT30;68312;53.502;10.030;2023-08-01T04:05:29;15.98;95.96
77727;SHT30;68312;53.502;10.030;2023-08-01T04:07:55;15.97;95.89
77727;SHT30;68312;53.502;10.030;2023-08-01T04:10:21;15.95;95.90
77727;SHT30;68312;53.502;10.030;2023-08-01T04:12:47;15.97;95.86
77727;SHT30;68312;53.502;10.030;2023-08-01T04:15:12;15.94;95.88
77727;SHT30;68312;53.502;10.030;2023-08-01T04:17:38;15.92;95.85
77727;SHT30;68312;53.502;10.030;2023-08-01T04:20:04;15.95;95.85
77727;SHT30;68312;53.502;10.030;2023-08-01T04:22:29;15.94;95.86
77727;SHT30;68312;53.502;10.030;2023-08-01T04:24:55;15.94;95.79
77727;SHT30;68312;53.502;10.030;2023-08-01T04:27:20;15.97;95.70
77727;SHT30;68312;53.502;10.030;2023-08-01T04:29:45;15.97;95.49
77727;SHT30;68312;53.502;10.030;2023-08-01T04:32:11;15.99;95.47
77727;SHT30;68312;53.502;10.030;2023-08-01T04:34:39;15.98;95.46
77727;SHT30;68312;53.502;10.030;2023-08-01T04:37:04;16.02;95.42
77727;SHT30;68312;53.502;10.030;2023-08-01T04:39:30;16.05;95.42
77727;SHT30;68312;53.502;10.030;2023-08-01T04:41:58;16.05;95.44
77727;SHT30;68312;53.502;10.030;2023-08-01T04:44:23;16.06;95.46
77727;SHT30;68312;53.502;10.030;2023-08-01T04:46:49;16.08;95.37
77727;SHT30;68312;53.502;10.030;2023-08-01T04:49:14;16.09;95.37
77727;SHT30;68312;53.502;10.030;2023-08-01T04:51:40;16.10;95.38
77727;SHT30;68312;53.502;10.030;2023-08-01T04:54:05;16.13;95.21
77727;SHT30;68312;53.502;10.030;2023-08-01T04:56:31;16.10;95.12
77727;SHT30;68312;53.502;10.030;2023-08-01T04:58:56;16.13;95.11
77727;SHT30;68312;53.502;10.030;2023-08-01T05:01:22;16.10;94.94
77727;SHT30;68312;53.502;10.030;2023-08-01T05:03:47;16.18;94.91
77727;SHT30;68312;53.502;10.030;2023-08-01T05:06:13;16.22;94.83
77727;SHT30;68312;53.502;10.030;2023-08-01T05:08:39;16.26;94.75
77727;SHT30;68312;53.502;10.030;2023-08-01T05:11:04;16.28;94.24
77727;SHT30;68312;53.502;10.030;2023-08-01T05:13:31;16.29;94.06
77727;SHT30;68312;53.502;10.030;2023-08-01T05:15:56;16.32;93.66
77727;SHT30;68312;53.502;10.030;2023-08-01T05:18:22;16.39;93.73
77727;SHT30;68312;53.502;10.030;2023-08-01T05:20:47;16.36;93.28
77727;SHT30;68312;53.502;10.030;2023-08-01T05:23:12;16.32;93.38
77727;SHT30;68312;53.502;10.030;2023-08-01T05:25:38;16.32;93.42
77727;SHT30;68312;53.502;10.030;2023-08-01T05:28:03;16.33;93.19
77727;SHT30;68312;53.502;10.030;2023-08-01T05:30:29;16.29;93.07
77727;SHT30;68312;53.502;10.030;2023-08-01T05:32:54;16.29;93.25
77727;SHT30;68312;53.502;10.030;2023-08-01T05:35:20;16.29;93.04
77727;SHT30;68312;53.502;10.030;2023-08-01T05:37:46;16.32;93.14
77727;SHT30;68312;53.502;10.030;2023-08-01T05:40:12;16.30;92.84
77727;SHT30;68312;53.502;10.030;2023-08-01T05:42:38;16.33;92.54
77727;SHT30;68312;53.502;10.030;2023-08-01T05:45:04;16.42;92.16
77727;SHT30;68312;53.502;10.030;2023-08-01T05:47:30;16.36;91.07
77727;SHT30;68312;53.502;10.030;2023-08-01T05:49:56;16.37;91.66
77727;SHT30;68312;53.502;10.030;2023-08-01T05:52:22;16.39;91.47
77727;SHT30;68312;53.502;10.030;2023-08-01T05:54:47;16.47;91.38
77727;SHT30;68312;53.502;10.030;2023-08-01T05:57:13;16.53;91.22
77727;SHT30;68312;53.502;10.030;2023-08-01T05:59:38;16.53;91.04
77727;SHT30;68312;53.502;10.030;2023-08-01T06:02:04;16.53;90.84
77727;SHT30;68312;53.502;10.030;2023-08-01T06:04:29;16.45;90.21
77727;SHT30;68312;53.502;10.030;2023-08-01T06:06:55;16.40;90.87
77727;SHT30;68312;53.502;10.030;2023-08-01T06:09:21;16.39;90.89
77727;SHT30;68312;53.502;10.030;2023-08-01T06:11:46;16.37;91.44
77727;SHT30;68312;53.502;10.030;2023-08-01T06:14:12;16.32;91.36
77727;SHT30;68312;53.502;10.030;2023-08-01T06:16:38;16.43;90.94
77727;SHT30;68312;53.502;10.030;2023-08-01T06:19:03;16.45;91.17
77727;SHT30;68312;53.502;10.030;2023-08-01T06:21:30;16.55;90.71
77727;SHT30;68312;53.502;10.030;2023-08-01T06:23:58;16.68;90.81
77727;SHT30;68312;53.502;10.030;2023-08-01T06:26:25;16.77;90.24
77727;SHT30;68312;53.502;10.030;2023-08-01T06:28:51;16.91;89.67
77727;SHT30;68312;53.502;10.030;2023-08-01T06:31:20;16.98;89.19
77727;SHT30;68312;53.502;10.030;2023-08-01T06:33:45;17.07;89.01
77727;SHT30;68312;53.502;10.030;2023-08-01T06:36:11;17.10;88.54
77727;SHT30;68312;53.502;10.030;2023-08-01T06:38:36;17.10;87.95
77727;SHT30;68312;53.502;10.030;2023-08-01T06:41:02;16.98;87.54
77727;SHT30;68312;53.502;10.030;2023-08-01T06:43:28;16.94;88.05
77727;SHT30;68312;53.502;10.030;2023-08-01T06:45:53;16.78;87.96
77727;SHT30;68312;53.502;10.030;2023-08-01T06:48:19;16.66;87.78
77727;SHT30;68312;53.502;10.030;2023-08-01T06:50:44;16.60;87.24
77727;SHT30;68312;53.502;10.030;2023-08-01T06:53:09;16.52;87.12
77727;SHT30;68312;53.502;10.030;2023-08-01T06:55:35;16.57;87.40
77727;SHT30;68312;53.502;10.030;2023-08-01T06:58:01;16.64;87.06
77727;SHT30;68312;53.502;10.030;2023-08-01T07:00:26;16.80;86.78
77727;SHT30;68312;53.502;10.030;2023-08-01T07:02:51;16.87;86.35
77727;SHT30;68312;53.502;10.030;2023-08-01T07:05:17;16.92;85.36
77727;SHT30;68312;53.502;10.030;2023-08-01T07:07:43;16.95;84.88
77727;SHT30;68312;53.502;10.030;2023-08-01T07:10:08;16.92;83.75
77727;SHT30;68312;53.502;10.030;2023-08-01T07:12:34;17.01;84.22
77727;SHT30;68312;53.502;10.030;2023-08-01T07:14:59;17.12;83.83
77727;SHT30;68312;53.502;10.030;2023-08-01T07:17:25;17.25;84.52
77727;SHT30;68312;53.502;10.030;2023-08-01T07:19:50;17.38;83.95
77727;SHT30;68312;53.502;10.030;2023-08-01T07:22:15;17.45;83.81
77727;SHT30;68312;53.502;10.030;2023-08-01T07:24:41;17.22;82.85
77727;SHT30;68312;53.502;10.030;2023-08-01T07:27:06;17.32;83.24
77727;SHT30;68312;53.502;10.030;2023-08-01T07:29:32;17.22;83.15
77727;SHT30;68312;53.502;10.030;2023-08-01T07:31:57;17.15;83.70
77727;SHT30;68312;53.502;10.030;2023-08-01T07:34:23;17.29;83.89
77727;SHT30;68312;53.502;10.030;2023-08-01T07:36:48;17.19;83.93
77727;SHT30;68312;53.502;10.030;2023-08-01T07:39:15;17.28;84.56
77727;SHT30;68312;53.502;10.030;2023-08-01T07:41:41;17.29;84.46
77727;SHT30;68312;53.502;10.030;2023-08-01T07:44:07;17.50;84.08
77727;SHT30;68312;53.502;10.030;2023-08-01T07:46:33;17.73;84.36
77727;SHT30;68312;53.502;10.030;2023-08-01T07:48:59;17.63;83.80
77727;SHT30;68312;53.502;10.030;2023-08-01T07:51:27;17.45;83.68
77727;SHT30;68312;53.502;10.030;2023-08-01T07:53:54;17.50;84.21
77727;SHT30;68312;53.502;10.030;2023-08-01T07:56:20;17.70;82.93
77727;SHT30;68312;53.502;10.030;2023-08-01T07:58:46;17.93;82.79
77727;SHT30;68312;53.502;10.030;2023-08-01T08:01:12;18.13;81.72
77727;SHT30;68312;53.502;10.030;2023-08-01T08:03:38;18.49;80.11
77727;SHT30;68312;53.502;10.030;2023-08-01T08:06:04;18.72;78.98
77727;SHT30;68312;53.502;10.030;2023-08-01T08:08:31;19.19;78.76
77727;SHT30;68312;53.502;10.030;2023-08-01T08:10:59;19.58;78.65
77727;SHT30;68312;53.502;10.030;2023-08-01T08:13:24;19.65;76.73
77727;SHT30;68312;53.502;10.030;2023-08-01T08:15:50;19.43;77.54
77727;SHT30;68312;53.502;10.030;2023-08-01T08:18:16;19.30;76.97
77727;SHT30;68312;53.502;10.030;2023-08-01T08:20:45;19.10;76.97
77727;SHT30;68312;53.502;10.030;2023-08-01T08:23:12;18.99;77.78
77727;SHT30;68312;53.502;10.030;2023-08-01T08:25:44;18.81;79.50
77727;SHT30;68312;53.502;10.030;2023-08-01T08:28:12;18.59;79.79
77727;SHT30;68312;53.502;10.030;2023-08-01T08:30:39;18.37;78.36
77727;SHT30;68312;53.502;10.030;2023-08-01T08:33:04;18.44;78.55
77727;SHT30;68312;53.502;10.030;2023-08-01T08:35:33;18.56;79.06
77727;SHT30;68312;53.502;10.030;2023-08-01T08:38:02;19.03;78.00
77727;SHT30;68312;53.502;10.030;2023-08-01T08:40:27;19.44;75.75
77727;SHT30;68312;53.502;10.030;2023-08-01T08:42:53;19.43;75.34
77727;SHT30;68312;53.502;10.030;2023-08-01T08:45:20;19.44;76.46
77727;SHT30;68312;53.502;10.030;2023-08-01T08:47:55;19.43;75.72
77727;SHT30;68312;53.502;10.030;2023-08-01T08:50:21;19.57;75.85
77727;SHT30;68312;53.502;10.030;2023-08-01T08:52:46;19.75;75.76
77727;SHT30;68312;53.502;10.030;2023-08-01T08:55:12;20.18;73.70
77727;SHT30;68312;53.502;10.030;2023-08-01T08:57:38;20.70;74.12
77727;SHT30;68312;53.502;10.030;2023-08-01T09:00:06;20.70;72.32
77727;SHT30;68312;53.502;10.030;2023-08-01T09:02:33;21.17;71.76
77727;SHT30;68312;53.502;10.030;2023-08-01T09:04:59;21.11;69.86
77727;SHT30;68312;53.502;10.030;2023-08-01T09:07:29;20.64;73.12
77727;SHT30;68312;53.502;10.030;2023-08-01T09:09:58;19.79;73.66
77727;SHT30;68312;53.502;10.030;2023-08-01T09:12:24;19.51;76.46
77727;SHT30;68312;53.502;10.030;2023-08-01T09:14:52;18.96;74.94
77727;SHT30;68312;53.502;10.030;2023-08-01T09:17:21;18.63;75.64
77727;SHT30;68312;53.502;10.030;2023-08-01T09:19:47;18.33;76.99
77727;SHT30;68312;53.502;10.030;2023-08-01T09:22:14;18.15;78.06
77727;SHT30;68312;53.502;10.030;2023-08-01T09:24:51;18.05;78.86
77727;SHT30;68312;53.502;10.030;2023-08-01T09:27:17;18.03;79.58
77727;SHT30;68312;53.502;10.030;2023-08-01T09:29:42;18.10;79.69
77727;SHT30;68312;53.502;10.030;2023-08-01T09:32:13;17.96;79.63
77727;SHT30;68312;53.502;10.030;2023-08-01T09:34:40;17.96;80.14
77727;SHT30;68312;53.502;10.030;2023-08-01T09:37:05;17.84;80.41
77727;SHT30;68312;53.502;10.030;2023-08-01T09:39:31;17.98;80.63
77727;SHT30;68312;53.502;10.030;2023-08-01T09:42:01;18.49;79.08
77727;SHT30;68312;53.502;10.030;2023-08-01T09:44:29;19.68;75.42
77727;SHT30;68312;53.502;10.030;2023-08-01T09:47:04;21.27;70.98
77727;SHT30;68312;53.502;10.030;2023-08-01T09:49:31;22.43;65.77
77727;SHT30;68312;53.502;10.030;2023-08-01T09:51:58;22.96;62.29
77727;SHT30;68312;53.502;10.030;2023-08-01T09:58:04;23.68;59.55
77727;SHT30;68312;53.502;10.030;2023-08-01T10:00:32;23.49;61.26
77727;SHT30;68312;53.502;10.030;2023-08-01T10:02:59;23.49;62.11
77727;SHT30;68312;53.502;10.030;2023-08-01T10:05:30;22.35;64.39
77727;SHT30;68312;53.502;10.030;2023-08-01T10:07:59;21.49;68.68
77727;SHT30;68312;53.502;10.030;2023-08-01T10:10:26;22.10;66.59
77727;SHT30;68312;53.502;10.030;2023-08-01T10:12:54;22.71;61.98
77727;SHT30;68312;53.502;10.030;2023-08-01T10:15:21;23.17;59.06
77727;SHT30;68312;53.502;10.030;2023-08-01T10:17:47;24.32;57.12
77727;SHT30;68312;53.502;10.030;2023-08-01T10:20:14;23.89;57.38
77727;SHT30;68312;53.502;10.030;2023-08-01T10:22:41;22.33;61.39
77727;SHT30;68312;53.502;10.030;2023-08-01T10:25:09;21.76;65.17
77727;SHT30;68312;53.502;10.030;2023-08-01T10:27:36;22.68;61.83
77727;SHT30;68312;53.502;10.030;2023-08-01T10:30:04;23.26;59.89
77727;SHT30;68312;53.502;10.030;2023-08-01T10:32:39;23.50;60.52
77727;SHT30;68312;53.502;10.030;2023-08-01T10:35:05;24.08;57.63
77727;SHT30;68312;53.502;10.030;2023-08-01T10:37:45;23.62;57.33
77727;SHT30;68312;53.502;10.030;2023-08-01T10:40:12;22.89;59.60
77727;SHT30;68312;53.502;10.030;2023-08-01T10:42:45;22.89;60.34
77727;SHT30;68312;53.502;10.030;2023-08-01T10:45:22;23.64;58.64
77727;SHT30;68312;53.502;10.030;2023-08-01T10:47:51;24.26;58.84
77727;SHT30;68312;53.502;10.030;2023-08-01T10:50:18;24.69;54.86
77727;SHT30;68312;53.502;10.030;2023-08-01T10:52:43;23.84;56.07
77727;SHT30;68312;53.502;10.030;2023-08-01T10:55:10;22.98;59.82
77727;SHT30;68312;53.502;10.030;2023-08-01T10:57:39;23.17;59.56
77727;SHT30;68312;53.502;10.030;2023-08-01T11:00:16;23.88;57.00
77727;SHT30;68312;53.502;10.030;2023-08-01T11:02:49;25.00;52.69
77727;SHT30;68312;53.502;10.030;2023-08-01T11:05:17;24.92;52.23
77727;SHT30;68312;53.502;10.030;2023-08-01T11:07:57;24.91;54.64
77727;SHT30;68312;53.502;10.030;2023-08-01T11:10:28;23.99;52.57
77727;SHT30;68312;53.502;10.030;2023-08-01T11:12:54;21.98;59.80
77727;SHT30;68312;53.502;10.030;2023-08-01T11:15:20;20.85;61.96
77727;SHT30;68312;53.502;10.030;2023-08-01T11:17:51;19.70;63.42
77727;SHT30;68312;53.502;10.030;2023-08-01T11:20:19;18.77;66.97
77727;SHT30;68312;53.502;10.030;2023-08-01T11:22:59;17.94;71.76
77727;SHT30;68312;53.502;10.030;2023-08-01T11:25:42;17.42;73.37
77727;SHT30;68312;53.502;10.030;2023-08-01T11:28:13;17.18;74.38
77727;SHT30;68312;53.502;10.030;2023-08-01T11:30:38;17.10;76.36
77727;SHT30;68312;53.502;10.030;2023-08-01T11:33:21;16.67;80.31
77727;SHT30;68312;53.502;10.030;2023-08-01T11:35:55;16.34;82.56
77727;SHT30;68312;53.502;10.030;2023-08-01T11:38:29;16.29;82.24
77727;SHT30;68312;53.502;10.030;2023-08-01T11:41:00;16.19;82.96
77727;SHT30;68312;53.502;10.030;2023-08-01T11:43:48;16.23;84.12
77727;SHT30;68312;53.502;10.030;2023-08-01T11:46:13;16.29;84.11
77727;SHT30;68312;53.502;10.030;2023-08-01T11:48:39;16.26;84.53
77727;SHT30;68312;53.502;10.030;2023-08-01T11:51:04;16.29;84.85
77727;SHT30;68312;53.502;10.030;2023-08-01T11:53:30;16.34;85.49
77727;SHT30;68312;53.502;10.030;2023-08-01T11:55:57;16.47;84.55
77727;SHT30;68312;53.502;10.030;2023-08-01T12:01:06;17.55;82.88
77727;SHT30;68312;53.502;10.030;2023-08-01T12:03:49;18.27;81.19
77727;SHT30;68312;53.502;10.030;2023-08-01T12:06:17;19.04;78.81
77727;SHT30;68312;53.502;10.030;2023-08-01T12:08:45;19.57;74.92
77727;SHT30;68312;53.502;10.030;2023-08-01T12:11:25;20.37;73.97
77727;SHT30;68312;53.502;10.030;2023-08-01T12:14:10;20.36;74.87
77727;SHT30;68312;53.502;10.030;2023-08-01T12:16:42;19.86;76.97
77727;SHT30;68312;53.502;10.030;2023-08-01T12:19:20;19.46;76.77
77727;SHT30;68312;53.502;10.030;2023-08-01T12:21:47;18.96;77.17
77727;SHT30;68312;53.502;10.030;2023-08-01T12:24:13;18.77;78.12
77727;SHT30;68312;53.502;10.030;2023-08-01T12:26:38;18.44;79.94
77727;SHT30;68312;53.502;10.030;2023-08-01T12:29:03;18.30;81.30
77727;SHT30;68312;53.502;10.030;2023-08-01T12:31:29;18.27;80.67
77727;SHT30;68312;53.502;10.030;2023-08-01T12:33:54;18.15;83.03
77727;SHT30;68312;53.502;10.030;2023-08-01T12:36:21;17.86;82.46
77727;SHT30;68312;53.502;10.030;2023-08-01T12:38:46;17.79;83.36
77727;SHT30;68312;53.502;10.030;2023-08-01T12:41:12;17.55;84.78
77727;SHT30;68312;53.502;10.030;2023-08-01T12:43:37;17.25;85.10
77727;SHT30;68312;53.502;10.030;2023-08-01T12:46:03;17.10;85.38
77727;SHT30;68312;53.502;10.030;2023-08-01T12:48:29;17.01;85.54
77727;SHT30;68312;53.502;10.030;2023-08-01T12:50:55;16.67;85.91
77727;SHT30;68312;53.502;10.030;2023-08-01T12:53:22;16.88;86.30
77727;SHT30;68312;53.502;10.030;2023-08-01T12:55:50;17.36;84.55
77727;SHT30;68312;53.502;10.030;2023-08-01T12:58:16;17.72;83.93
77727;SHT30;68312;53.502;10.030;2023-08-01T13:00:43;18.15;82.18
77727;SHT30;68312;53.502;10.030;2023-08-01T13:03:10;18.37;81.34
77727;SHT30;68312;53.502;10.030;2023-08-01T13:05:38;18.95;81.05
77727;SHT30;68312;53.502;10.030;2023-08-01T13:08:04;20.02;76.23
77727;SHT30;68312;53.502;10.030;2023-08-01T13:10:35;20.66;76.04
77727;SHT30;68312;53.502;10.030;2023-08-01T13:13:01;20.80;75.36
77727;SHT30;68312;53.502;10.030;2023-08-01T13:15:28;21.12;72.43
77727;SHT30;68312;53.502;10.030;2023-08-01T13:17:53;21.15;72.49
77727;SHT30;68312;53.502;10.030;2023-08-01T13:20:19;21.53;72.00
77727;SHT30;68312;53.502;10.030;2023-08-01T13:22:47;21.34;72.62
77727;SHT30;68312;53.502;10.030;2023-08-01T13:25:14;21.50;72.60
77727;SHT30;68312;53.502;10.030;2023-08-01T13:27:39;22.35;69.82
77727;SHT30;68312;53.502;10.030;2023-08-01T13:30:06;22.00;72.05
77727;SHT30;68312;53.502;10.030;2023-08-01T13:32:31;21.55;69.60
77727;SHT30;68312;53.502;10.030;2023-08-01T13:34:57;20.90;72.08
77727;SHT30;68312;53.502;10.030;2023-08-01T13:37:23;20.29;73.39
77727;SHT30;68312;53.502;10.030;2023-08-01T13:39:49;19.71;74.38
77727;SHT30;68312;53.502;10.030;2023-08-01T13:42:14;19.34;76.78
77727;SHT30;68312;53.502;10.030;2023-08-01T13:44:41;18.83;79.76
77727;SHT30;68312;53.502;10.030;2023-08-01T13:47:07;18.42;82.72
77727;SHT30;68312;53.502;10.030;2023-08-01T13:49:33;18.17;85.92
77727;SHT30;68312;53.502;10.030;2023-08-01T13:51:59;18.28;85.42
77727;SHT30;68312;53.502;10.030;2023-08-01T13:54:25;19.62;82.08
77727;SHT30;68312;53.502;10.030;2023-08-01T13:56:51;20.95;80.03
77727;SHT30;68312;53.502;10.030;2023-08-01T13:59:19;21.90;76.00
77727;SHT30;68312;53.502;10.030;2023-08-01T14:01:46;21.69;73.57
77727;SHT30;68312;53.502;10.030;2023-08-01T14:04:11;21.08;74.29
77727;SHT30;68312;53.502;10.030;2023-08-01T14:06:40;20.23;76.12
77727;SHT30;68312;53.502;10.030;2023-08-01T14:09:10;19.60;78.34
77727;SHT30;68312;53.502;10.030;2023-08-01T14:11:37;19.12;80.42
77727;SHT30;68312;53.502;10.030;2023-08-01T14:14:03;18.61;82.20
77727;SHT30;68312;53.502;10.030;2023-08-01T14:16:29;18.45;83.51
77727;SHT30;68312;53.502;10.030;2023-08-01T14:18:55;18.21;83.22
77727;SHT30;68312;53.502;10.030;2023-08-01T14:21:21;18.10;83.16
77727;SHT30;68312;53.502;10.030;2023-08-01T14:23:46;18.03;84.86
77727;SHT30;68312;53.502;10.030;2023-08-01T14:26:13;17.83;85.44
77727;SHT30;68312;53.502;10.030;2023-08-01T14:28:38;17.62;86.52
77727;SHT30;68312;53.502;10.030;2023-08-01T14:31:04;17.38;86.70
77727;SHT30;68312;53.502;10.030;2023-08-01T14:33:30;17.17;86.56
77727;SHT30;68312;53.502;10.030;2023-08-01T14:35:56;17.14;85.84
77727;SHT30;68312;53.502;10.030;2023-08-01T14:38:22;17.28;85.30
77727;SHT30;68312;53.502;10.030;2023-08-01T14:40:48;17.89;85.43
77727;SHT30;68312;53.502;10.030;2023-08-01T14:43:14;19.10;81.60
77727;SHT30;68312;53.502;10.030;2023-08-01T14:45:40;20.83;74.40
77727;SHT30;68312;53.502;10.030;2023-08-01T14:48:07;21.34;73.57
77727;SHT30;68312;53.502;10.030;2023-08-01T14:50:33;20.43;72.90
77727;SHT30;68312;53.502;10.030;2023-08-01T14:52:59;20.77;75.68
77727;SHT30;68312;53.502;10.030;2023-08-01T14:55:24;21.53;71.25
77727;SHT30;68312;53.502;10.030;2023-08-01T14:57:50;20.84;74.66
77727;SHT30;68312;53.502;10.030;2023-08-01T15:00:16;20.49;76.16
77727;SHT30;68312;53.502;10.030;2023-08-01T15:02:41;21.32;74.51
77727;SHT30;68312;53.502;10.030;2023-08-01T15:05:07;21.94;71.39
77727;SHT30;68312;53.502;10.030;2023-08-01T15:07:33;22.08;70.48
77727;SHT30;68312;53.502;10.030;2023-08-01T15:09:58;21.94;71.34
77727;SHT30;68312;53.502;10.030;2023-08-01T15:12:24;22.38;70.17
77727;SHT30;68312;53.502;10.030;2023-08-01T15:14:53;22.47;70.64
77727;SHT30;68312;53.502;10.030;2023-08-01T15:17:19;21.80;72.71
77727;SHT30;68312;53.502;10.030;2023-08-01T15:19:44;20.77;74.58